Pagina principale
METAR-TAF:

METAR-TAF

Aeroporti :

Aeroporto di Niamey-Diori Hamani

Niamey, Niger

latitudine: 13-29N, longitudine: 002-10E, altezza: 223 m

Osservazione

Il bollettino è stato emesso 44 minuti fa, alle 06:00 UTC
Vento 4 kt da nord/nord-ovest
Temperature 23°C
Umidità 29%
Pressione 1011 hPa
Visibilità: 8000 m

METAR: DRRN 210600Z 34004KT 8000 NSC 23/04 Q1011 NOSIG

Ora: 07:44 (06:44 UTC)

Previsione

Il bollettino è stato emesso 1 ora e 44 minuti fa, alle 05:00 UTC
Previsione valida dal 21 alle 06 UTC al 22 alle 12 UTC
Vento 10 kt da nord-est
Visibilità: 8000 m
Temporaneamente
dal 21 alle 06 UTC al 21 alle 08 UTC
Visibilità: 3500 m
polvere diffusa

TAF: DRRN 210500Z 2106/2212 04010KT 8000 NSC TEMPO 2106/2108 3500 DU

Osservazioni e previsioni meteorologiche di più di 4000 aeroporti (messaggi METAR e TAF).

Le stazioni disponibili sono rappresentate dai dischi gialli e rossi sulla carta.

Puntare il mouse per vedere il nome della stazione.

Clicca sopra per visualizzare le osservazioni e previsioni meteorologiche.

Per cambiare la mappa : fare clic sui pulsanti verdi con una croce nera per ingrandire, il pulsante verde con un trattino per diminuire, o sulla freccia verde per le mappe adiacenti.


METAR-TAF: